Time;durP1;ratioP1;P1;durP2;ratioP2;P2;SDS_P1;SDS_P2;PMS_P1;PMS_P2;Temp;Humidity;BMP_temperature;BMP_pressure;BME280_temperature;BME280_humidity;BME280_pressure;Samples;Min_cycle;Max_cycle;Signal;HPM_P1;HPM_P2
2023/09/22 00:01:57;;;;;;;7.10;6.20;;;19.60;1.00;;;;;;5112500;27;20468;-82
2023/09/22 00:04:24;;;;;;;7.10;6.40;;;19.60;1.00;;;;;;5114718;27;20497;-82
2023/09/22 00:06:53;;;;;;;6.53;5.93;;;19.60;1.00;;;;;;5111789;27;20472;-82
2023/09/22 00:09:20;;;;;;;6.90;6.07;;;19.50;1.00;;;;;;5114140;27;20452;-81
2023/09/22 00:11:47;;;;;;;7.43;6.43;;;19.50;1.00;;;;;;5114329;27;20492;-83
2023/09/22 00:14:15;;;;;;;6.70;6.00;;;19.50;1.00;;;;;;5112268;27;20502;-82
2023/09/22 00:16:46;;;;;;;7.23;6.53;;;19.50;1.00;;;;;;5108594;27;20437;-81
2023/09/22 00:19:12;;;;;;;6.70;6.10;;;19.60;1.00;;;;;;5111124;27;20482;-81
2023/09/22 00:21:41;;;;;;;7.30;6.00;;;19.60;1.00;;;;;;5106705;27;24300;-82
2023/09/22 00:24:11;;;;;;;6.93;6.23;;;19.70;1.00;;;;;;5088729;27;21509;-81
2023/09/22 00:26:38;;;;;;;7.50;6.13;;;19.70;1.00;;;;;;5109811;27;20485;-81
2023/09/22 00:29:06;;;;;;;7.67;6.00;;;19.70;1.00;;;;;;5092921;27;20449;-81
2023/09/22 00:31:38;;;;;;;7.00;6.40;;;19.70;1.00;;;;;;5105742;27;20461;-81
2023/09/22 00:34:06;;;;;;;6.70;6.00;;;19.80;1.00;;;;;;5090823;27;20449;-81
2023/09/22 00:36:33;;;;;;;5.77;5.27;;;19.80;1.00;;;;;;5108232;27;20559;-81
2023/09/22 00:39:01;;;;;;;8.60;6.37;;;19.70;1.00;;;;;;5111601;27;21748;-82
2023/09/22 00:41:28;;;;;;;6.13;5.53;;;19.70;1.00;;;;;;5108424;27;20549;-81
2023/09/22 00:43:55;;;;;;;7.40;6.13;;;19.70;1.00;;;;;;5110740;27;20611;-82
2023/09/22 00:46:26;;;;;;;5.90;5.40;;;19.70;1.00;;;;;;5115793;27;20496;-82
2023/09/22 00:48:57;;;;;;;6.73;6.13;;;19.70;1.00;;;;;;5078106;28;20460;-82
2023/09/22 00:51:27;;;;;;;7.50;6.80;;;19.70;1.00;;;;;;5111548;27;20517;-80
2023/09/22 00:53:55;;;;;;;10.87;7.23;;;19.70;1.00;;;;;;5113003;27;20460;-82
2023/09/22 00:56:24;;;;;;;10.20;6.60;;;19.70;1.00;;;;;;5112078;27;20442;-81
2023/09/22 00:58:51;;;;;;;6.73;6.23;;;19.70;1.00;;;;;;5111183;27;20532;-80
2023/09/22 01:01:23;;;;;;;7.47;6.40;;;19.70;1.00;;;;;;5115725;27;20469;-84
2023/09/22 01:03:52;;;;;;;8.07;7.37;;;19.60;1.00;;;;;;5059894;28;20539;-80
2023/09/22 01:06:20;;;;;;;7.03;6.33;;;19.70;1.00;;;;;;5073020;28;20504;-80
2023/09/22 01:08:49;;;;;;;7.80;6.83;;;19.60;1.00;;;;;;5072781;28;20476;-80
2023/09/22 01:11:18;;;;;;;10.23;7.33;;;19.70;1.00;;;;;;5075585;28;21767;-81
2023/09/22 01:13:45;;;;;;;7.50;6.80;;;19.60;1.00;;;;;;5072058;28;20434;-80
2023/09/22 01:16:12;;;;;;;8.27;7.50;;;19.60;1.00;;;;;;5073717;28;20477;-82
2023/09/22 01:18:39;;;;;;;7.23;6.30;;;19.60;1.00;;;;;;5069539;28;20549;-81
2023/09/22 01:21:06;;;;;;;7.80;7.20;;;19.50;1.00;;;;;;5071806;28;20479;-80
2023/09/22 01:23:36;;;;;;;8.73;7.83;;;19.50;1.00;;;;;;5072589;28;20940;-82
2023/09/22 01:26:04;;;;;;;8.60;7.60;;;19.40;1.00;;;;;;5069107;28;20802;-80
2023/09/22 01:28:31;;;;;;;10.60;8.30;;;19.40;1.00;;;;;;5069283;28;20508;-80
2023/09/22 01:30:59;;;;;;;9.40;8.50;;;19.40;1.00;;;;;;5069652;28;20466;-81
2023/09/22 01:33:26;;;;;;;8.07;7.37;;;19.40;1.00;;;;;;5069699;28;20557;-81
2023/09/22 01:35:53;;;;;;;8.57;7.87;;;19.50;1.00;;;;;;5067061;28;20467;-81
2023/09/22 01:38:23;;;;;;;7.93;7.27;;;19.40;1.00;;;;;;5079003;28;20473;-79
2023/09/22 01:40:52;;;;;;;10.70;8.63;;;19.40;1.00;;;;;;5074357;28;20487;-81
2023/09/22 01:43:19;;;;;;;9.43;8.60;;;19.40;1.00;;;;;;5079412;28;20467;-83
2023/09/22 01:45:48;;;;;;;10.03;9.10;;;19.40;1.00;;;;;;5075484;28;20846;-81
2023/09/22 01:48:16;;;;;;;8.30;7.57;;;19.40;1.00;;;;;;5065648;28;21244;-82
2023/09/22 01:50:48;;;;;;;9.10;8.40;;;19.40;1.00;;;;;;5079762;28;20566;-84
2023/09/22 01:53:15;;;;;;;8.63;7.83;;;19.40;1.00;;;;;;5080066;28;20427;-85
2023/09/22 01:55:43;;;;;;;9.40;8.50;;;19.50;1.00;;;;;;5082175;28;20469;-83
2023/09/22 01:58:11;;;;;;;10.10;9.20;;;19.50;1.00;;;;;;5079754;28;20524;-82
2023/09/22 02:00:39;;;;;;;10.20;9.20;;;19.50;1.00;;;;;;5074533;28;20470;-84
2023/09/22 02:03:06;;;;;;;9.63;8.80;;;19.50;1.00;;;;;;5107652;27;20551;-84
2023/09/22 02:05:34;;;;;;;10.57;9.50;;;19.50;1.00;;;;;;5121388;27;20485;-82
2023/09/22 02:08:01;;;;;;;10.40;9.20;;;19.50;1.00;;;;;;5119599;27;20460;-83
2023/09/22 02:10:28;;;;;;;9.93;9.03;;;19.50;1.00;;;;;;5122499;27;20424;-84
2023/09/22 02:12:55;;;;;;;11.50;10.37;;;19.50;1.00;;;;;;5121099;27;20469;-85
2023/09/22 02:15:23;;;;;;;12.10;9.47;;;19.50;1.00;;;;;;5119322;27;20537;-82
2023/09/22 02:17:50;;;;;;;11.37;10.37;;;19.60;1.00;;;;;;5120489;27;20504;-82
2023/09/22 02:20:22;;;;;;;11.13;10.03;;;19.60;1.00;;;;;;5120992;27;20547;-82
2023/09/22 02:22:49;;;;;;;10.60;9.70;;;19.60;1.00;;;;;;5116702;27;20460;-82
2023/09/22 02:25:17;;;;;;;12.60;10.13;;;19.60;1.00;;;;;;5120675;27;20534;-83
2023/09/22 02:27:45;;;;;;;11.60;10.50;;;19.60;1.00;;;;;;5100134;27;20519;-82
2023/09/22 02:30:14;;;;;;;11.20;10.07;;;19.70;1.00;;;;;;5116479;27;20461;-83
2023/09/22 02:32:47;;;;;;;10.60;9.70;;;19.70;1.00;;;;;;5119686;27;20492;-83
2023/09/22 02:35:14;;;;;;;10.00;8.97;;;19.70;1.00;;;;;;5110595;27;20554;-82
2023/09/22 02:37:43;;;;;;;12.90;10.80;;;19.70;1.00;;;;;;5115892;27;20461;-83
2023/09/22 02:40:14;;;;;;;11.03;10.07;;;19.60;1.00;;;;;;5121493;27;20455;-81
2023/09/22 02:42:43;;;;;;;11.00;10.00;;;19.70;1.00;;;;;;5099257;27;20480;-82
2023/09/22 02:45:11;;;;;;;12.17;11.07;;;19.60;1.00;;;;;;5120503;27;20467;-82
2023/09/22 02:47:40;;;;;;;12.33;11.33;;;19.60;1.00;;;;;;5114846;27;20440;-81
2023/09/22 02:50:10;;;;;;;12.57;11.37;;;19.50;1.00;;;;;;5114921;27;20466;-82
2023/09/22 02:52:38;;;;;;;11.60;10.50;;;19.50;1.00;;;;;;5113542;27;20604;-81
2023/09/22 02:55:07;;;;;;;10.73;9.90;;;19.40;1.00;;;;;;5114319;27;20491;-82
2023/09/22 02:57:36;;;;;;;11.63;10.63;;;19.50;1.00;;;;;;5112246;27;20880;-81
2023/09/22 03:00:11;;;;;;;12.73;11.43;;;19.40;1.00;;;;;;5114808;27;20452;-82
2023/09/22 03:02:38;;;;;;;12.63;11.20;;;19.40;1.00;;;;;;5111823;27;20471;-82
2023/09/22 03:05:09;;;;;;;11.63;10.73;;;19.50;1.00;;;;;;5114915;27;20867;-81
2023/09/22 03:07:38;;;;;;;12.27;11.10;;;19.40;1.00;;;;;;5110001;27;20477;-80
2023/09/22 03:10:06;;;;;;;12.07;11.07;;;19.50;1.00;;;;;;5112445;27;20456;-79
2023/09/22 03:12:35;;;;;;;11.37;10.47;;;19.50;1.00;;;;;;5112321;27;20509;-81
2023/09/22 03:15:04;;;;;;;11.13;10.20;;;19.50;1.00;;;;;;5112062;27;21019;-79
2023/09/22 03:17:31;;;;;;;10.10;9.30;;;19.50;1.00;;;;;;5110469;27;21955;-77
2023/09/22 03:20:06;;;;;;;9.43;8.70;;;19.60;1.00;;;;;;5112071;27;20538;-78
2023/09/22 03:22:39;;;;;;;11.30;8.57;;;19.50;1.00;;;;;;5095891;28;20863;-78
2023/09/22 03:25:08;;;;;;;9.60;8.80;;;19.60;1.00;;;;;;5111472;27;20961;-77
2023/09/22 03:27:36;;;;;;;8.57;7.80;;;19.70;1.00;;;;;;5099069;27;20464;-78
2023/09/22 03:30:05;;;;;;;8.77;7.97;;;19.70;1.00;;;;;;5103993;27;20945;-78
2023/09/22 03:32:35;;;;;;;7.47;6.80;;;19.60;1.00;;;;;;5111358;28;20471;-78
2023/09/22 03:35:06;;;;;;;7.13;6.53;;;19.70;1.00;;;;;;5104004;27;20512;-79
2023/09/22 03:37:36;;;;;;;6.57;6.07;;;19.70;1.00;;;;;;5106842;27;20452;-78
2023/09/22 03:40:10;;;;;;;5.97;5.30;;;19.70;1.00;;;;;;5109850;27;20460;-82
2023/09/22 03:42:37;;;;;;;5.90;5.50;;;19.70;1.00;;;;;;5113093;27;20460;-80
2023/09/22 03:45:07;;;;;;;5.70;5.10;;;19.70;1.00;;;;;;5110705;27;20468;-80
2023/09/22 03:47:34;;;;;;;5.37;4.87;;;19.60;1.00;;;;;;5111993;27;20610;-82
2023/09/22 03:50:01;;;;;;;5.50;5.10;;;19.50;1.00;;;;;;5111760;27;20557;-80
2023/09/22 03:52:28;;;;;;;4.43;4.10;;;19.50;1.00;;;;;;5111256;27;20552;-81
2023/09/22 03:54:56;;;;;;;4.50;4.10;;;19.60;1.00;;;;;;5113114;27;20487;-79
2023/09/22 03:57:24;;;;;;;4.00;3.60;;;19.60;1.00;;;;;;5108355;27;20452;-80
2023/09/22 03:59:51;;;;;;;4.50;3.60;;;19.60;1.00;;;;;;5094472;28;20962;-79
2023/09/22 04:02:20;;;;;;;3.33;3.00;;;19.50;1.00;;;;;;5112649;27;20466;-81
2023/09/22 04:04:47;;;;;;;3.60;2.47;;;19.30;1.00;;;;;;5108619;27;20470;-77
2023/09/22 04:07:14;;;;;;;2.87;2.40;;;19.10;1.00;;;;;;5110702;27;20473;-78
2023/09/22 04:09:42;;;;;;;3.40;3.10;;;19.00;1.00;;;;;;5109384;27;20577;-79
2023/09/22 04:12:11;;;;;;;6.03;2.80;;;18.90;1.00;;;;;;5111923;27;20463;-80
2023/09/22 04:14:39;;;;;;;4.10;2.40;;;18.90;1.00;;;;;;5093214;28;20468;-78
2023/09/22 04:17:08;;;;;;;2.63;2.33;;;18.80;1.00;;;;;;5114045;27;20496;-79
2023/09/22 04:19:36;;;;;;;2.87;1.97;;;18.60;1.00;;;;;;5095350;27;20928;-76
2023/09/22 04:22:06;;;;;;;3.73;2.03;;;18.40;1.00;;;;;;5095426;28;20994;-78
2023/09/22 04:24:34;;;;;;;2.40;2.20;;;18.20;1.00;;;;;;5114384;27;20473;-77
2023/09/22 04:27:06;;;;;;;2.83;2.50;;;18.00;1.00;;;;;;5111899;28;21002;-81
2023/09/22 04:29:35;;;;;;;3.13;2.20;;;17.90;1.00;;;;;;5113043;27;20483;-78
2023/09/22 04:32:03;;;;;;;4.43;2.60;;;17.80;1.00;;;;;;5116759;27;20453;-77
2023/09/22 04:34:32;;;;;;;2.70;2.23;;;17.80;1.00;;;;;;5120060;27;21359;-78
2023/09/22 04:37:03;;;;;;;4.97;3.17;;;17.70;1.00;;;;;;5119850;28;20462;-75
2023/09/22 04:39:32;;;;;;;3.07;2.30;;;17.60;1.00;;;;;;5116439;27;20504;-77
2023/09/22 04:42:01;;;;;;;2.60;2.37;;;17.60;1.00;;;;;;5098061;27;20454;-77
2023/09/22 04:44:30;;;;;;;3.50;3.03;;;17.50;1.00;;;;;;5112796;27;20876;-78
2023/09/22 04:46:59;;;;;;;5.33;2.80;;;17.50;1.00;;;;;;5100496;28;20450;-77
2023/09/22 04:49:27;;;;;;;4.13;2.60;;;17.60;1.00;;;;;;5115389;27;20461;-76
2023/09/22 04:51:54;;;;;;;3.80;2.20;;;17.60;1.00;;;;;;5123753;27;20888;-78
2023/09/22 04:54:21;;;;;;;3.40;3.10;;;17.50;1.00;;;;;;5115357;28;20529;-78
2023/09/22 04:56:51;;;;;;;3.30;3.00;;;17.50;1.00;;;;;;5117086;27;20458;-78
2023/09/22 04:59:19;;;;;;;3.53;2.60;;;17.40;1.00;;;;;;5116584;28;20498;-78
2023/09/22 05:01:46;;;;;;;5.13;3.97;;;17.40;1.00;;;;;;5116630;27;20405;-79
2023/09/22 05:04:17;;;;;;;6.53;5.53;;;17.40;1.00;;;;;;5113980;27;20437;-77
2023/09/22 05:06:47;;;;;;;6.47;2.63;;;17.40;1.00;;;;;;5111280;28;20594;-78
2023/09/22 05:09:14;;;;;;;3.40;3.00;;;17.40;1.00;;;;;;5117051;28;20460;-78
2023/09/22 05:11:41;;;;;;;3.30;3.00;;;17.40;1.00;;;;;;5111342;27;21043;-79
2023/09/22 05:14:11;;;;;;;3.70;3.33;;;17.40;1.00;;;;;;5090805;27;21005;-76
2023/09/22 05:16:43;;;;;;;3.70;2.60;;;17.40;1.00;;;;;;5109016;28;20537;-80
2023/09/22 05:19:14;;;;;;;4.60;3.83;;;17.50;1.00;;;;;;5080156;28;20477;-77
2023/09/22 05:21:47;;;;;;;4.40;4.00;;;17.50;1.00;;;;;;5109902;27;20474;-80
2023/09/22 05:24:21;;;;;;;6.60;2.97;;;17.60;1.00;;;;;;5103143;27;20471;-77
2023/09/22 05:26:51;;;;;;;4.13;2.70;;;17.60;1.00;;;;;;5096627;27;20588;-80
2023/09/22 05:29:20;;;;;;;2.33;2.13;;;17.70;1.00;;;;;;5103145;27;20838;-79
2023/09/22 05:31:53;;;;;;;3.20;2.90;;;17.70;1.00;;;;;;5086831;27;20451;-77
2023/09/22 05:34:22;;;;;;;2.40;2.17;;;17.70;1.00;;;;;;5113217;28;20474;-79
2023/09/22 05:36:49;;;;;;;6.50;2.43;;;17.70;1.00;;;;;;5089902;27;20467;-76
2023/09/22 05:39:19;;;;;;;3.80;2.93;;;17.60;1.00;;;;;;5104627;27;20554;-79
2023/09/22 05:41:49;;;;;;;3.30;2.67;;;17.60;1.00;;;;;;5114552;27;20438;-79
2023/09/22 05:44:17;;;;;;;5.80;3.50;;;17.60;1.00;;;;;;5111401;27;20934;-79
2023/09/22 05:46:47;;;;;;;4.50;2.97;;;17.60;1.00;;;;;;5107680;27;20438;-76
2023/09/22 05:49:18;;;;;;;3.70;3.40;;;17.60;1.00;;;;;;5103745;27;20462;-79
2023/09/22 05:51:48;;;;;;;4.43;3.20;;;17.60;1.00;;;;;;5109522;27;20883;-78
2023/09/22 05:54:15;;;;;;;3.37;2.70;;;17.60;1.00;;;;;;5106794;27;20561;-77
2023/09/22 05:56:42;;;;;;;4.60;3.40;;;17.50;1.00;;;;;;5102103;27;20461;-79
2023/09/22 05:59:09;;;;;;;3.80;3.40;;;17.40;1.00;;;;;;5087215;27;20558;-78
2023/09/22 06:01:37;;;;;;;4.40;3.87;;;17.40;1.00;;;;;;5096495;27;20414;-83
2023/09/22 06:04:06;;;;;;;4.67;3.30;;;17.40;1.00;;;;;;5086348;27;20482;-80
2023/09/22 06:06:36;;;;;;;4.83;3.27;;;17.50;1.00;;;;;;5102714;27;20438;-79
2023/09/22 06:09:11;;;;;;;3.93;3.60;;;17.50;1.00;;;;;;5107460;27;20475;-79
2023/09/22 06:11:39;;;;;;;3.90;3.40;;;17.40;1.00;;;;;;5085500;28;20477;-79
2023/09/22 06:14:07;;;;;;;4.47;3.70;;;17.50;1.00;;;;;;5086123;27;20474;-80
2023/09/22 06:16:36;;;;;;;3.93;3.63;;;17.50;1.00;;;;;;5103538;27;20450;-79
2023/09/22 06:19:04;;;;;;;4.07;3.67;;;17.50;1.00;;;;;;5108751;27;20457;-82
2023/09/22 06:21:37;;;;;;;6.10;4.10;;;17.50;1.00;;;;;;5114180;27;20461;-80
2023/09/22 06:24:08;;;;;;;4.07;3.60;;;17.50;1.00;;;;;;5110721;27;20461;-81
2023/09/22 06:26:36;;;;;;;4.18;3.80;;;17.50;1.00;;;;;;5115359;27;20437;-80
2023/09/22 06:29:05;;;;;;;4.23;3.83;;;17.60;1.00;;;;;;5121300;27;20236;-77
2023/09/22 06:31:33;;;;;;;3.73;3.30;;;17.60;1.00;;;;;;5118213;28;20463;-78
2023/09/22 06:34:00;;;;;;;3.97;3.40;;;17.50;1.00;;;;;;5109589;27;20611;-78
2023/09/22 06:36:27;;;;;;;3.77;3.30;;;17.50;1.00;;;;;;5106047;27;20457;-77
2023/09/22 06:38:56;;;;;;;3.20;3.00;;;17.60;1.00;;;;;;5108110;27;21004;-78
2023/09/22 06:41:24;;;;;;;3.53;3.23;;;17.60;1.00;;;;;;5106545;27;20458;-78
2023/09/22 06:43:53;;;;;;;3.40;3.10;;;17.60;1.00;;;;;;5112304;27;20592;-77
2023/09/22 06:46:20;;;;;;;3.60;3.30;;;17.60;1.00;;;;;;5108346;27;21211;-81
2023/09/22 06:48:47;;;;;;;4.40;3.90;;;17.60;1.00;;;;;;5110362;27;20458;-77
2023/09/22 06:51:18;;;;;;;6.73;4.70;;;17.70;1.00;;;;;;5112874;27;20572;-77
2023/09/22 06:53:47;;;;;;;6.10;3.40;;;17.70;1.00;;;;;;5099425;27;20459;-79
2023/09/22 06:56:14;;;;;;;5.13;3.40;;;17.80;1.00;;;;;;5093517;28;20974;-78
2023/09/22 06:58:47;;;;;;;3.57;3.27;;;17.90;1.00;;;;;;5112092;27;20841;-79
2023/09/22 07:01:14;;;;;;;3.97;2.97;;;17.90;1.00;;;;;;5109829;27;20891;-79
2023/09/22 07:03:42;;;;;;;2.80;2.60;;;17.90;1.00;;;;;;5103751;27;20488;-82
2023/09/22 07:06:11;;;;;;;4.87;3.03;;;18.00;1.00;;;;;;5109951;27;20451;-79
2023/09/22 07:08:39;;;;;;;3.73;3.43;;;18.00;1.00;;;;;;5109657;27;20522;-83
2023/09/22 07:11:09;;;;;;;3.27;2.67;;;18.10;1.00;;;;;;5110514;27;20450;-84
2023/09/22 07:13:36;;;;;;;4.50;2.70;;;18.10;1.00;;;;;;5108912;27;20897;-80
2023/09/22 07:16:06;;;;;;;2.70;2.50;;;18.10;1.00;;;;;;5088269;28;20458;-79
2023/09/22 07:18:33;;;;;;;4.73;3.60;;;18.10;1.00;;;;;;5098791;27;20447;-81
2023/09/22 07:21:01;;;;;;;4.77;3.53;;;18.20;1.00;;;;;;5107581;27;20445;-80
2023/09/22 07:23:30;;;;;;;4.80;4.20;;;18.20;1.00;;;;;;5111157;27;20466;-80
2023/09/22 07:26:03;;;;;;;2.60;2.40;;;18.20;1.00;;;;;;5108998;27;20553;-80
2023/09/22 07:28:30;;;;;;;2.70;2.27;;;18.30;1.00;;;;;;5108419;27;20882;-79
2023/09/22 07:30:59;;;;;;;3.20;2.80;;;18.20;1.00;;;;;;5110269;27;20461;-79
2023/09/22 07:33:32;;;;;;;5.47;4.00;;;18.20;1.00;;;;;;5105424;27;20584;-81
2023/09/22 07:36:04;;;;;;;5.00;2.77;;;18.10;1.00;;;;;;5116106;27;20429;-81
2023/09/22 07:38:31;;;;;;;2.70;2.50;;;18.10;1.00;;;;;;5098152;28;20462;-81
2023/09/22 07:40:59;;;;;;;6.70;3.37;;;18.00;1.00;;;;;;5110926;27;20528;-79
2023/09/22 07:43:29;;;;;;;7.73;7.03;;;18.00;1.00;;;;;;5107984;28;20928;-80
2023/09/22 07:45:58;;;;;;;5.43;2.87;;;18.00;1.00;;;;;;5112165;27;20444;-80
2023/09/22 07:48:27;;;;;;;3.43;3.13;;;17.90;1.00;;;;;;5109499;27;20555;-80
2023/09/22 07:50:54;;;;;;;3.90;2.87;;;18.00;1.00;;;;;;5108985;27;20447;-79
2023/09/22 07:53:21;;;;;;;4.13;3.27;;;18.00;1.00;;;;;;5106551;27;20548;-78
2023/09/22 07:55:51;;;;;;;3.40;3.10;;;18.10;1.00;;;;;;5108851;27;20562;-79
2023/09/22 07:58:18;;;;;;;2.80;2.60;;;18.10;1.00;;;;;;5106575;27;20466;-80
2023/09/22 08:00:46;;;;;;;3.53;3.23;;;17.90;1.00;;;;;;5108479;27;20450;-82
2023/09/22 08:03:16;;;;;;;5.53;3.37;;;17.90;1.00;;;;;;5105405;27;20966;-80
2023/09/22 08:05:44;;;;;;;5.47;3.77;;;17.90;1.00;;;;;;5104732;27;20473;-77
2023/09/22 08:08:13;;;;;;;2.90;2.27;;;18.00;1.00;;;;;;5105897;27;20422;-79
2023/09/22 08:10:41;;;;;;;6.90;3.13;;;18.00;1.00;;;;;;5109670;27;20466;-78
2023/09/22 08:13:09;;;;;;;4.13;2.40;;;17.90;1.00;;;;;;5106546;27;20479;-81
2023/09/22 08:15:37;;;;;;;4.23;2.30;;;17.90;1.00;;;;;;5105925;27;20458;-82
2023/09/22 08:18:05;;;;;;;2.47;2.20;;;18.00;1.00;;;;;;5105914;27;20623;-80
2023/09/22 08:20:33;;;;;;;3.57;2.60;;;18.00;1.00;;;;;;5106719;27;20465;-81
2023/09/22 08:23:02;;;;;;;3.23;2.40;;;18.00;1.00;;;;;;5111415;27;20502;-78
2023/09/22 08:25:29;;;;;;;4.43;2.33;;;18.00;1.00;;;;;;5106853;27;20480;-78
2023/09/22 08:27:58;;;;;;;3.53;3.20;;;18.10;1.00;;;;;;5108876;27;20503;-83
2023/09/22 08:30:25;;;;;;;2.90;2.70;;;18.10;1.00;;;;;;5110030;27;20455;-81
2023/09/22 08:32:53;;;;;;;3.50;3.20;;;18.10;1.00;;;;;;5106390;27;20521;-81
2023/09/22 08:35:21;;;;;;;3.30;2.37;;;18.10;1.00;;;;;;5092262;28;21009;-79
2023/09/22 08:37:52;;;;;;;3.13;2.33;;;18.10;1.00;;;;;;5108498;27;20508;-83
2023/09/22 08:40:20;;;;;;;3.90;2.33;;;18.10;1.00;;;;;;5112683;27;20418;-82
2023/09/22 08:42:52;;;;;;;2.83;2.57;;;18.10;1.00;;;;;;5105520;27;20547;-79
2023/09/22 08:45:20;;;;;;;8.03;3.43;;;18.10;1.00;;;;;;5105557;27;20451;-81
2023/09/22 08:47:49;;;;;;;3.43;2.93;;;18.20;1.00;;;;;;5090102;28;20997;-81
2023/09/22 08:50:18;;;;;;;3.97;3.37;;;18.20;1.00;;;;;;5108083;27;20456;-78
2023/09/22 08:52:48;;;;;;;3.00;2.80;;;18.30;1.00;;;;;;5106583;27;22551;-81
2023/09/22 08:55:16;;;;;;;4.37;4.00;;;18.30;1.00;;;;;;5090519;28;20449;-81
2023/09/22 08:57:45;;;;;;;3.90;2.47;;;18.30;1.00;;;;;;5110191;27;20999;-85
2023/09/22 09:00:18;;;;;;;4.33;2.50;;;18.30;1.00;;;;;;5108981;27;20460;-82
2023/09/22 09:02:46;;;;;;;2.90;2.53;;;18.30;1.00;;;;;;5086488;27;20989;-81
2023/09/22 09:05:22;;;;;;;2.73;2.03;;;18.30;1.00;;;;;;5108541;27;20450;-83
2023/09/22 09:07:50;;;;;;;2.53;2.30;;;18.40;1.00;;;;;;5108735;27;20536;-80
2023/09/22 09:10:32;;;;;;;3.03;2.20;;;18.30;1.00;;;;;;5109682;27;20472;-82
2023/09/22 09:13:03;;;;;;;2.10;1.90;;;18.40;1.00;;;;;;5110574;27;20408;-83
2023/09/22 09:15:42;;;;;;;3.50;2.17;;;18.30;1.00;;;;;;5110248;27;20517;-82
2023/09/22 09:18:11;;;;;;;2.47;2.27;;;18.30;1.00;;;;;;5107974;27;20470;-83
2023/09/22 09:20:40;;;;;;;2.30;2.10;;;18.30;1.00;;;;;;5109962;27;20419;-84
2023/09/22 09:23:15;;;;;;;3.03;1.60;;;18.30;1.00;;;;;;5111787;27;20570;-81
2023/09/22 09:25:44;;;;;;;5.77;2.53;;;18.30;1.00;;;;;;5110630;27;20533;-82
2023/09/22 09:28:15;;;;;;;3.43;1.90;;;18.30;1.00;;;;;;5110190;27;20451;-83
2023/09/22 09:30:51;;;;;;;2.90;1.80;;;18.30;1.00;;;;;;5108283;27;20563;-82
2023/09/22 09:33:20;;;;;;;3.20;1.73;;;18.30;1.00;;;;;;5109677;27;20482;-83
2023/09/22 09:35:47;;;;;;;2.90;1.90;;;18.30;1.00;;;;;;5109066;27;20452;-85
2023/09/22 09:38:15;;;;;;;3.03;2.53;;;18.20;1.00;;;;;;5111152;27;20466;-83
2023/09/22 09:40:43;;;;;;;2.37;1.90;;;18.10;1.00;;;;;;5110679;27;20600;-80
2023/09/22 09:43:11;;;;;;;2.73;2.40;;;18.10;1.00;;;;;;5109470;27;20993;-84
2023/09/22 09:45:49;;;;;;;2.43;1.70;;;17.90;1.00;;;;;;5096162;27;20474;-84
2023/09/22 09:48:18;;;;;;;2.47;1.70;;;17.90;1.00;;;;;;5111909;27;20517;-84
2023/09/22 09:50:48;;;;;;;3.23;2.23;;;17.90;1.00;;;;;;5116263;27;21859;-83
2023/09/22 09:53:26;;;;;;;3.90;3.00;;;17.90;1.00;;;;;;5114402;27;20442;-86
2023/09/22 09:55:58;;;;;;;2.13;1.63;;;18.00;1.00;;;;;;5111513;27;21339;-82
2023/09/22 09:58:29;;;;;;;3.53;2.47;;;18.00;1.00;;;;;;5115209;27;20458;-84
2023/09/22 10:01:00;;;;;;;4.03;1.93;;;18.10;1.00;;;;;;5119490;27;20450;-84
2023/09/22 10:03:28;;;;;;;1.90;1.60;;;18.20;1.00;;;;;;5111016;27;20538;-80
2023/09/22 10:05:57;;;;;;;2.50;2.00;;;18.10;1.00;;;;;;5111302;27;22404;-81
2023/09/22 10:08:26;;;;;;;3.17;2.57;;;18.20;1.00;;;;;;5111921;27;21406;-82
2023/09/22 10:10:56;;;;;;;3.53;2.27;;;18.20;1.00;;;;;;5094176;27;20930;-82
2023/09/22 10:13:25;;;;;;;1.87;1.77;;;18.30;1.00;;;;;;5077700;28;20475;-81
2023/09/22 10:16:02;;;;;;;2.53;2.27;;;18.40;1.00;;;;;;5102115;27;20501;-79
2023/09/22 10:18:47;;;;;;;2.53;1.90;;;18.40;1.00;;;;;;5110889;27;20534;-80
2023/09/22 10:21:45;;;;;;;2.50;1.83;;;18.40;1.00;;;;;;5110163;27;20561;-81
2023/09/22 10:24:27;;;;;;;5.43;1.77;;;18.40;1.00;;;;;;5063005;27;20482;-80
2023/09/22 10:27:14;;;;;;;2.70;1.80;;;18.50;1.00;;;;;;5108541;27;20573;-81
2023/09/22 10:29:54;;;;;;;2.80;1.83;;;18.50;1.00;;;;;;5111854;27;20494;-82
2023/09/22 10:32:45;;;;;;;2.20;2.00;;;18.40;1.00;;;;;;5106265;27;20962;-81
2023/09/22 10:35:15;;;;;;;2.07;1.80;;;18.30;1.00;;;;;;5108896;27;20472;-82
2023/09/22 10:38:00;;;;;;;2.37;1.47;;;18.30;1.00;;;;;;5108736;27;20913;-83
2023/09/22 10:40:27;;;;;;;2.30;1.87;;;18.20;1.00;;;;;;5097606;27;20429;-84
2023/09/22 10:42:54;;;;;;;5.43;1.90;;;18.20;1.00;;;;;;5095608;28;20464;-85
2023/09/22 10:45:25;;;;;;;2.20;1.70;;;18.20;1.00;;;;;;5116002;27;21106;-85
2023/09/22 10:47:55;;;;;;;2.07;1.87;;;18.20;1.00;;;;;;5115471;27;20416;-85
2023/09/22 10:50:26;;;;;;;4.00;2.00;;;18.30;1.00;;;;;;5113065;27;20458;-83
2023/09/22 10:52:55;;;;;;;2.57;1.90;;;18.20;1.00;;;;;;5110298;27;20482;-83
2023/09/22 10:55:39;;;;;;;3.83;3.50;;;18.30;1.00;;;;;;5112430;27;20497;-83
2023/09/22 10:58:09;;;;;;;2.87;2.00;;;18.40;1.00;;;;;;5115381;27;20447;-83
2023/09/22 11:00:39;;;;;;;3.67;2.33;;;18.40;1.00;;;;;;5109749;27;20475;-84
2023/09/22 11:03:10;;;;;;;5.27;4.20;;;18.40;1.00;;;;;;5117561;27;20472;-83
2023/09/22 11:05:37;;;;;;;6.13;3.50;;;18.50;1.00;;;;;;5115772;27;20469;-84
2023/09/22 11:08:14;;;;;;;2.37;2.17;;;18.60;1.00;;;;;;5113200;27;20886;-83
2023/09/22 11:10:43;;;;;;;5.73;2.47;;;18.70;1.00;;;;;;5115290;27;20466;-84
2023/09/22 11:13:12;;;;;;;2.03;1.70;;;18.70;1.00;;;;;;5114449;27;20452;-82
2023/09/22 11:15:49;;;;;;;5.10;2.90;;;18.70;1.00;;;;;;5111395;27;20480;-84
2023/09/22 11:18:24;;;;;;;5.60;3.33;;;18.70;1.00;;;;;;5115267;27;20456;-83
2023/09/22 11:20:58;;;;;;;3.43;2.40;;;18.80;1.00;;;;;;5113479;27;20437;-84
2023/09/22 11:23:26;;;;;;;3.23;2.30;;;18.80;1.00;;;;;;5113349;27;20483;-83
2023/09/22 11:25:58;;;;;;;3.60;2.80;;;18.90;1.00;;;;;;5111175;27;20488;-82
2023/09/22 11:28:27;;;;;;;2.93;2.20;;;19.00;1.00;;;;;;5115359;27;20461;-84
2023/09/22 11:30:55;;;;;;;3.00;2.13;;;18.90;1.00;;;;;;5113006;27;21045;-82
2023/09/22 11:33:23;;;;;;;4.50;2.10;;;18.90;1.00;;;;;;5111470;27;20460;-84
2023/09/22 11:36:03;;;;;;;3.10;2.40;;;18.80;1.00;;;;;;5110373;27;20460;-85
2023/09/22 11:38:35;;;;;;;4.77;1.97;;;18.70;1.00;;;;;;5117847;27;20448;-84
2023/09/22 11:41:08;;;;;;;3.23;2.93;;;18.60;1.00;;;;;;5117830;28;21256;-83
2023/09/22 11:43:39;;;;;;;4.00;2.33;;;18.70;1.00;;;;;;5115031;27;20463;-83
2023/09/22 11:46:10;;;;;;;2.87;2.50;;;18.70;1.00;;;;;;5100026;27;20494;-86
2023/09/22 11:49:09;;;;;;;4.50;2.83;;;18.70;1.00;;;;;;5100537;27;21253;-83
2023/09/22 11:51:43;;;;;;;3.60;2.70;;;18.70;1.00;;;;;;5026863;28;20511;-84
2023/09/22 11:54:11;;;;;;;2.90;2.60;;;18.90;1.00;;;;;;5096943;27;20529;-83
2023/09/22 11:56:39;;;;;;;3.97;3.00;;;18.90;1.00;;;;;;5115469;27;20928;-83
2023/09/22 11:59:07;;;;;;;4.33;3.40;;;18.80;1.00;;;;;;5115923;27;20908;-82
2023/09/22 12:01:39;;;;;;;2.80;2.60;;;18.80;1.00;;;;;;5101939;27;20947;-82
2023/09/22 12:04:10;;;;;;;6.40;2.87;;;18.80;1.00;;;;;;5099194;28;20480;-84
2023/09/22 12:06:40;;;;;;;3.50;3.20;;;18.80;1.00;;;;;;5077633;27;20527;-82
2023/09/22 12:09:08;;;;;;;5.47;4.77;;;18.80;1.00;;;;;;5113173;27;20478;-82
2023/09/22 12:11:35;;;;;;;4.43;3.43;;;18.90;1.00;;;;;;5114733;27;20466;-83
2023/09/22 12:14:03;;;;;;;5.40;3.43;;;18.90;1.00;;;;;;5113499;27;20464;-83
2023/09/22 12:16:30;;;;;;;2.60;2.30;;;18.90;1.00;;;;;;5114189;27;20445;-82
2023/09/22 12:18:58;;;;;;;2.80;2.60;;;18.90;1.00;;;;;;5110623;27;20512;-82
2023/09/22 12:21:48;;;;;;;3.20;2.77;;;18.80;1.00;;;;;;5113858;27;20458;-84
2023/09/22 12:24:15;;;;;;;4.50;2.80;;;18.70;1.00;;;;;;5117097;27;20426;-87
2023/09/22 12:26:42;;;;;;;4.00;3.23;;;18.70;1.00;;;;;;5115840;28;20444;-83
2023/09/22 12:29:10;;;;;;;3.40;3.10;;;18.70;1.00;;;;;;5116559;27;20447;-84
2023/09/22 12:31:40;;;;;;;4.07;2.63;;;18.90;1.00;;;;;;5106849;27;20564;-83
2023/09/22 12:34:07;;;;;;;3.40;3.10;;;18.90;1.00;;;;;;5109499;27;20418;-83
2023/09/22 12:36:35;;;;;;;3.40;3.07;;;18.90;1.00;;;;;;5111073;28;20503;-83
2023/09/22 12:39:05;;;;;;;2.87;2.03;;;18.90;1.00;;;;;;5118037;27;20517;-82
2023/09/22 12:41:32;;;;;;;2.87;2.67;;;18.70;1.00;;;;;;5091367;27;20433;-85
2023/09/22 12:44:00;;;;;;;4.20;2.30;;;18.60;1.00;;;;;;5113431;27;20494;-84
2023/09/22 12:46:28;;;;;;;2.43;2.23;;;18.50;1.00;;;;;;5101246;27;20583;-83
2023/09/22 12:48:58;;;;;;;2.50;2.30;;;18.40;1.00;;;;;;5088615;28;20501;-83
2023/09/22 12:51:25;;;;;;;2.97;2.37;;;18.20;1.00;;;;;;5105092;27;20554;-82
2023/09/22 12:53:53;;;;;;;2.83;2.10;;;18.20;1.00;;;;;;5115177;27;20515;-84
2023/09/22 12:56:21;;;;;;;2.30;2.00;;;18.10;1.00;;;;;;5114198;27;20985;-83
2023/09/22 12:58:49;;;;;;;3.63;2.90;;;18.00;1.00;;;;;;5114946;27;20962;-84
2023/09/22 13:01:16;;;;;;;3.13;2.67;;;18.00;1.00;;;;;;5115104;27;21045;-84
2023/09/22 13:03:46;;;;;;;3.50;3.03;;;18.20;1.00;;;;;;5112746;27;20610;-83
2023/09/22 13:06:14;;;;;;;3.00;2.70;;;18.30;1.00;;;;;;5108994;27;20509;-83
2023/09/22 13:08:41;;;;;;;3.00;2.70;;;18.60;1.00;;;;;;5108468;27;20683;-82